sensor_id;sensor_type;location;lat;lon;timestamp;temperature;humidity
37242;DHT22;23135;51.078;12.108;2023-10-09T00:00:31;11.20;99.90
37242;DHT22;23135;51.078;12.108;2023-10-09T00:03:06;11.20;99.90
37242;DHT22;23135;51.078;12.108;2023-10-09T00:05:33;11.20;99.90
37242;DHT22;23135;51.078;12.108;2023-10-09T00:08:14;11.20;99.90
37242;DHT22;23135;51.078;12.108;2023-10-09T00:10:59;11.20;99.90
37242;DHT22;23135;51.078;12.108;2023-10-09T00:13:39;11.30;99.90
37242;DHT22;23135;51.078;12.108;2023-10-09T00:16:17;11.30;99.90
37242;DHT22;23135;51.078;12.108;2023-10-09T00:18:48;11.30;99.90
37242;DHT22;23135;51.078;12.108;2023-10-09T00:21:17;11.30;99.90
37242;DHT22;23135;51.078;12.108;2023-10-09T00:23:46;11.30;99.90
37242;DHT22;23135;51.078;12.108;2023-10-09T00:26:18;11.30;99.90
37242;DHT22;23135;51.078;12.108;2023-10-09T00:28:47;11.30;99.90
37242;DHT22;23135;51.078;12.108;2023-10-09T00:31:16;11.30;99.90
37242;DHT22;23135;51.078;12.108;2023-10-09T00:33:42;11.30;99.90
37242;DHT22;23135;51.078;12.108;2023-10-09T00:36:08;11.40;99.90
37242;DHT22;23135;51.078;12.108;2023-10-09T00:38:43;11.40;99.90
37242;DHT22;23135;51.078;12.108;2023-10-09T00:41:14;11.40;99.90
37242;DHT22;23135;51.078;12.108;2023-10-09T00:43:46;11.40;99.90
37242;DHT22;23135;51.078;12.108;2023-10-09T00:46:15;11.40;99.90
37242;DHT22;23135;51.078;12.108;2023-10-09T00:48:46;11.40;99.90
37242;DHT22;23135;51.078;12.108;2023-10-09T00:51:13;11.40;99.90
37242;DHT22;23135;51.078;12.108;2023-10-09T00:53:45;11.40;99.90
37242;DHT22;23135;51.078;12.108;2023-10-09T00:56:18;11.40;99.90
37242;DHT22;23135;51.078;12.108;2023-10-09T00:58:57;11.40;99.90
37242;DHT22;23135;51.078;12.108;2023-10-09T01:01:43;11.40;99.90
37242;DHT22;23135;51.078;12.108;2023-10-09T01:04:29;11.50;99.90
37242;DHT22;23135;51.078;12.108;2023-10-09T01:07:02;11.50;99.90
37242;DHT22;23135;51.078;12.108;2023-10-09T01:09:34;11.50;99.90
37242;DHT22;23135;51.078;12.108;2023-10-09T01:12:09;11.40;99.90
37242;DHT22;23135;51.078;12.108;2023-10-09T01:14:43;11.50;99.90
37242;DHT22;23135;51.078;12.108;2023-10-09T01:17:09;11.50;99.90
37242;DHT22;23135;51.078;12.108;2023-10-09T01:19:35;11.50;99.90
37242;DHT22;23135;51.078;12.108;2023-10-09T01:22:01;11.50;99.90
37242;DHT22;23135;51.078;12.108;2023-10-09T01:24:46;11.50;99.90
37242;DHT22;23135;51.078;12.108;2023-10-09T01:27:15;11.60;99.90
37242;DHT22;23135;51.078;12.108;2023-10-09T01:29:41;11.60;99.90
37242;DHT22;23135;51.078;12.108;2023-10-09T01:32:08;11.60;99.90
37242;DHT22;23135;51.078;12.108;2023-10-09T01:34:42;11.60;99.90
37242;DHT22;23135;51.078;12.108;2023-10-09T01:37:18;11.70;99.90
37242;DHT22;23135;51.078;12.108;2023-10-09T01:39:47;11.60;99.90
37242;DHT22;23135;51.078;12.108;2023-10-09T01:42:14;11.70;99.90
37242;DHT22;23135;51.078;12.108;2023-10-09T01:44:50;11.70;99.90
37242;DHT22;23135;51.078;12.108;2023-10-09T01:47:17;11.70;99.90
37242;DHT22;23135;51.078;12.108;2023-10-09T01:49:45;11.70;99.90
37242;DHT22;23135;51.078;12.108;2023-10-09T01:52:14;11.70;99.90
37242;DHT22;23135;51.078;12.108;2023-10-09T01:54:51;11.70;99.90
37242;DHT22;23135;51.078;12.108;2023-10-09T01:57:19;11.70;99.90
37242;DHT22;23135;51.078;12.108;2023-10-09T01:59:49;11.80;99.90
37242;DHT22;23135;51.078;12.108;2023-10-09T02:02:19;11.80;99.90
37242;DHT22;23135;51.078;12.108;2023-10-09T02:05:03;11.80;99.90
37242;DHT22;23135;51.078;12.108;2023-10-09T02:07:47;11.70;99.90
37242;DHT22;23135;51.078;12.108;2023-10-09T02:10:21;11.70;99.90
37242;DHT22;23135;51.078;12.108;2023-10-09T02:12:57;11.70;99.90
37242;DHT22;23135;51.078;12.108;2023-10-09T02:15:28;11.70;99.90
37242;DHT22;23135;51.078;12.108;2023-10-09T02:18:06;11.70;99.90
37242;DHT22;23135;51.078;12.108;2023-10-09T02:21:04;11.70;99.90
37242;DHT22;23135;51.078;12.108;2023-10-09T02:23:32;11.70;99.90
37242;DHT22;23135;51.078;12.108;2023-10-09T02:26:10;11.60;99.90
37242;DHT22;23135;51.078;12.108;2023-10-09T02:28:43;11.50;99.90
37242;DHT22;23135;51.078;12.108;2023-10-09T02:31:12;11.50;99.90
37242;DHT22;23135;51.078;12.108;2023-10-09T02:33:39;11.50;99.90
37242;DHT22;23135;51.078;12.108;2023-10-09T02:36:05;11.50;99.90
37242;DHT22;23135;51.078;12.108;2023-10-09T02:38:32;11.50;99.90
37242;DHT22;23135;51.078;12.108;2023-10-09T02:41:06;11.50;99.90
37242;DHT22;23135;51.078;12.108;2023-10-09T02:43:34;11.50;99.90
37242;DHT22;23135;51.078;12.108;2023-10-09T02:46:21;11.60;99.90
37242;DHT22;23135;51.078;12.108;2023-10-09T02:48:55;11.60;99.90
37242;DHT22;23135;51.078;12.108;2023-10-09T02:51:24;11.60;99.90
37242;DHT22;23135;51.078;12.108;2023-10-09T02:53:53;11.60;99.90
37242;DHT22;23135;51.078;12.108;2023-10-09T02:56:20;11.60;99.90
37242;DHT22;23135;51.078;12.108;2023-10-09T02:59:08;11.60;99.90
37242;DHT22;23135;51.078;12.108;2023-10-09T03:01:35;11.70;99.90
37242;DHT22;23135;51.078;12.108;2023-10-09T03:04:06;11.70;99.90
37242;DHT22;23135;51.078;12.108;2023-10-09T03:06:33;11.60;99.90
37242;DHT22;23135;51.078;12.108;2023-10-09T03:09:03;11.70;99.90
37242;DHT22;23135;51.078;12.108;2023-10-09T03:11:47;11.70;99.90
37242;DHT22;23135;51.078;12.108;2023-10-09T03:14:14;11.70;99.90
37242;DHT22;23135;51.078;12.108;2023-10-09T03:16:39;11.80;99.90
37242;DHT22;23135;51.078;12.108;2023-10-09T03:19:05;11.90;99.90
37242;DHT22;23135;51.078;12.108;2023-10-09T03:21:31;12.00;99.90
37242;DHT22;23135;51.078;12.108;2023-10-09T03:23:56;12.00;99.90
37242;DHT22;23135;51.078;12.108;2023-10-09T03:26:22;12.10;99.90
37242;DHT22;23135;51.078;12.108;2023-10-09T03:28:51;12.20;99.90
37242;DHT22;23135;51.078;12.108;2023-10-09T03:31:18;12.30;99.90
37242;DHT22;23135;51.078;12.108;2023-10-09T03:33:43;12.30;99.90
37242;DHT22;23135;51.078;12.108;2023-10-09T03:36:09;12.40;99.90
37242;DHT22;23135;51.078;12.108;2023-10-09T03:38:41;12.40;99.90
37242;DHT22;23135;51.078;12.108;2023-10-09T03:41:08;12.50;99.90
37242;DHT22;23135;51.078;12.108;2023-10-09T03:43:38;12.60;99.90
37242;DHT22;23135;51.078;12.108;2023-10-09T03:46:11;12.60;99.90
37242;DHT22;23135;51.078;12.108;2023-10-09T03:49:09;12.60;99.90
37242;DHT22;23135;51.078;12.108;2023-10-09T03:51:36;12.70;99.90
37242;DHT22;23135;51.078;12.108;2023-10-09T03:54:03;12.70;99.90
37242;DHT22;23135;51.078;12.108;2023-10-09T03:56:33;12.70;99.90
37242;DHT22;23135;51.078;12.108;2023-10-09T03:58:59;12.80;99.90
37242;DHT22;23135;51.078;12.108;2023-10-09T04:01:25;12.80;99.90
37242;DHT22;23135;51.078;12.108;2023-10-09T04:03:59;12.80;99.90
37242;DHT22;23135;51.078;12.108;2023-10-09T04:06:30;12.80;99.90
37242;DHT22;23135;51.078;12.108;2023-10-09T04:09:03;12.80;99.90
37242;DHT22;23135;51.078;12.108;2023-10-09T04:11:47;12.80;99.90
37242;DHT22;23135;51.078;12.108;2023-10-09T04:14:33;12.80;99.90
37242;DHT22;23135;51.078;12.108;2023-10-09T04:17:01;12.80;99.90
37242;DHT22;23135;51.078;12.108;2023-10-09T04:19:52;12.70;99.90
37242;DHT22;23135;51.078;12.108;2023-10-09T04:22:38;12.70;99.90
37242;DHT22;23135;51.078;12.108;2023-10-09T04:25:20;12.70;99.90
37242;DHT22;23135;51.078;12.108;2023-10-09T04:27:56;12.70;99.90
37242;DHT22;23135;51.078;12.108;2023-10-09T04:30:40;12.70;99.90
37242;DHT22;23135;51.078;12.108;2023-10-09T04:33:08;12.70;99.90
37242;DHT22;23135;51.078;12.108;2023-10-09T04:36:01;12.70;99.90
37242;DHT22;23135;51.078;12.108;2023-10-09T04:38:49;12.80;99.90
37242;DHT22;23135;51.078;12.108;2023-10-09T04:41:29;12.80;99.90
37242;DHT22;23135;51.078;12.108;2023-10-09T04:43:58;12.80;99.90
37242;DHT22;23135;51.078;12.108;2023-10-09T04:46:43;12.90;99.90
37242;DHT22;23135;51.078;12.108;2023-10-09T04:49:12;12.90;99.90
37242;DHT22;23135;51.078;12.108;2023-10-09T04:51:53;12.90;99.90
37242;DHT22;23135;51.078;12.108;2023-10-09T04:54:42;12.90;99.90
37242;DHT22;23135;51.078;12.108;2023-10-09T04:57:28;12.90;99.90
37242;DHT22;23135;51.078;12.108;2023-10-09T04:59:54;12.90;99.90
37242;DHT22;23135;51.078;12.108;2023-10-09T05:02:24;12.90;99.90
37242;DHT22;23135;51.078;12.108;2023-10-09T05:04:57;12.90;99.90
37242;DHT22;23135;51.078;12.108;2023-10-09T05:07:41;13.00;99.90
37242;DHT22;23135;51.078;12.108;2023-10-09T05:10:20;13.00;99.90
37242;DHT22;23135;51.078;12.108;2023-10-09T05:12:50;13.00;99.90
37242;DHT22;23135;51.078;12.108;2023-10-09T05:15:25;13.00;99.90
37242;DHT22;23135;51.078;12.108;2023-10-09T05:17:56;13.10;99.90
37242;DHT22;23135;51.078;12.108;2023-10-09T05:20:35;13.20;99.90
37242;DHT22;23135;51.078;12.108;2023-10-09T05:23:19;13.30;99.90
37242;DHT22;23135;51.078;12.108;2023-10-09T05:25:51;13.30;99.90
37242;DHT22;23135;51.078;12.108;2023-10-09T05:28:21;13.40;99.90
37242;DHT22;23135;51.078;12.108;2023-10-09T05:30:51;13.40;99.90
37242;DHT22;23135;51.078;12.108;2023-10-09T05:33:29;13.50;99.90
37242;DHT22;23135;51.078;12.108;2023-10-09T05:35:54;13.60;99.90
37242;DHT22;23135;51.078;12.108;2023-10-09T05:38:38;13.60;99.90
37242;DHT22;23135;51.078;12.108;2023-10-09T05:41:12;13.60;99.90
37242;DHT22;23135;51.078;12.108;2023-10-09T05:43:56;13.50;99.90
37242;DHT22;23135;51.078;12.108;2023-10-09T05:46:40;13.40;99.90
37242;DHT22;23135;51.078;12.108;2023-10-09T05:49:25;13.40;99.90
37242;DHT22;23135;51.078;12.108;2023-10-09T05:52:11;13.40;99.90
37242;DHT22;23135;51.078;12.108;2023-10-09T05:54:55;13.50;99.90
37242;DHT22;23135;51.078;12.108;2023-10-09T05:57:54;13.50;99.90
37242;DHT22;23135;51.078;12.108;2023-10-09T06:00:38;13.40;99.90
37242;DHT22;23135;51.078;12.108;2023-10-09T06:03:23;13.40;99.90
37242;DHT22;23135;51.078;12.108;2023-10-09T06:05:53;13.40;99.90
37242;DHT22;23135;51.078;12.108;2023-10-09T06:08:22;13.40;99.90
37242;DHT22;23135;51.078;12.108;2023-10-09T06:11:03;13.40;99.90
37242;DHT22;23135;51.078;12.108;2023-10-09T06:13:59;13.40;99.90
37242;DHT22;23135;51.078;12.108;2023-10-09T06:16:28;13.40;99.90
37242;DHT22;23135;51.078;12.108;2023-10-09T06:19:25;13.60;99.90
37242;DHT22;23135;51.078;12.108;2023-10-09T06:21:56;13.80;99.90
37242;DHT22;23135;51.078;12.108;2023-10-09T06:24:37;14.00;99.90
37242;DHT22;23135;51.078;12.108;2023-10-09T06:27:18;14.20;99.90
37242;DHT22;23135;51.078;12.108;2023-10-09T06:29:58;14.40;99.90
37242;DHT22;23135;51.078;12.108;2023-10-09T06:32:56;14.50;99.90
37242;DHT22;23135;51.078;12.108;2023-10-09T06:35:45;14.50;99.90
37242;DHT22;23135;51.078;12.108;2023-10-09T06:38:19;14.60;99.90
37242;DHT22;23135;51.078;12.108;2023-10-09T06:40:49;14.70;99.90
37242;DHT22;23135;51.078;12.108;2023-10-09T06:43:47;14.70;99.90
37242;DHT22;23135;51.078;12.108;2023-10-09T06:46:18;14.70;99.90
37242;DHT22;23135;51.078;12.108;2023-10-09T06:48:49;14.70;99.90
37242;DHT22;23135;51.078;12.108;2023-10-09T06:51:22;14.80;99.90
37242;DHT22;23135;51.078;12.108;2023-10-09T06:53:57;14.80;99.90
37242;DHT22;23135;51.078;12.108;2023-10-09T06:56:31;14.80;99.90
37242;DHT22;23135;51.078;12.108;2023-10-09T06:58:57;14.80;99.90
37242;DHT22;23135;51.078;12.108;2023-10-09T07:01:24;14.80;99.90
37242;DHT22;23135;51.078;12.108;2023-10-09T07:03:54;14.80;99.90
37242;DHT22;23135;51.078;12.108;2023-10-09T07:06:20;14.80;99.90
37242;DHT22;23135;51.078;12.108;2023-10-09T07:08:53;14.70;99.90
37242;DHT22;23135;51.078;12.108;2023-10-09T07:17:14;14.60;99.90
37242;DHT22;23135;51.078;12.108;2023-10-09T07:19:46;14.60;99.90
37242;DHT22;23135;51.078;12.108;2023-10-09T07:22:12;14.60;99.90
37242;DHT22;23135;51.078;12.108;2023-10-09T07:24:50;14.50;99.90
37242;DHT22;23135;51.078;12.108;2023-10-09T07:27:26;14.40;99.90
37242;DHT22;23135;51.078;12.108;2023-10-09T07:30:18;14.40;99.90
37242;DHT22;23135;51.078;12.108;2023-10-09T07:35:31;14.30;99.90
37242;DHT22;23135;51.078;12.108;2023-10-09T07:38:24;14.30;99.90
37242;DHT22;23135;51.078;12.108;2023-10-09T07:41:01;14.20;99.90
37242;DHT22;23135;51.078;12.108;2023-10-09T07:43:31;14.10;99.90
37242;DHT22;23135;51.078;12.108;2023-10-09T07:46:11;14.10;99.90
37242;DHT22;23135;51.078;12.108;2023-10-09T07:49:01;14.00;99.90
37242;DHT22;23135;51.078;12.108;2023-10-09T07:51:35;14.00;99.90
37242;DHT22;23135;51.078;12.108;2023-10-09T07:54:01;14.00;99.90
37242;DHT22;23135;51.078;12.108;2023-10-09T07:56:37;14.00;99.90
37242;DHT22;23135;51.078;12.108;2023-10-09T07:59:14;13.90;99.90
37242;DHT22;23135;51.078;12.108;2023-10-09T08:01:49;14.00;99.90
37242;DHT22;23135;51.078;12.108;2023-10-09T08:04:21;13.90;99.90
37242;DHT22;23135;51.078;12.108;2023-10-09T08:07:03;14.00;99.90
37242;DHT22;23135;51.078;12.108;2023-10-09T08:09:32;14.10;99.90
37242;DHT22;23135;51.078;12.108;2023-10-09T08:12:11;14.20;99.90
37242;DHT22;23135;51.078;12.108;2023-10-09T08:15:03;14.20;99.90
37242;DHT22;23135;51.078;12.108;2023-10-09T08:17:58;14.20;99.90
37242;DHT22;23135;51.078;12.108;2023-10-09T08:20:36;14.20;99.90
37242;DHT22;23135;51.078;12.108;2023-10-09T08:23:20;14.20;99.90
37242;DHT22;23135;51.078;12.108;2023-10-09T08:26:08;14.20;99.90
37242;DHT22;23135;51.078;12.108;2023-10-09T08:28:44;14.30;99.90
37242;DHT22;23135;51.078;12.108;2023-10-09T08:31:17;14.30;99.90
37242;DHT22;23135;51.078;12.108;2023-10-09T08:34:11;14.30;99.90
37242;DHT22;23135;51.078;12.108;2023-10-09T08:36:49;14.30;99.90
37242;DHT22;23135;51.078;12.108;2023-10-09T08:39:18;14.30;99.90
37242;DHT22;23135;51.078;12.108;2023-10-09T08:41:54;14.30;99.90
37242;DHT22;23135;51.078;12.108;2023-10-09T08:44:24;14.40;99.90
37242;DHT22;23135;51.078;12.108;2023-10-09T08:46:54;14.40;99.90
37242;DHT22;23135;51.078;12.108;2023-10-09T08:49:19;14.40;99.90
37242;DHT22;23135;51.078;12.108;2023-10-09T08:51:46;14.30;99.90
37242;DHT22;23135;51.078;12.108;2023-10-09T08:54:14;14.40;99.90
37242;DHT22;23135;51.078;12.108;2023-10-09T08:56:41;14.40;99.90
37242;DHT22;23135;51.078;12.108;2023-10-09T08:59:17;14.40;99.90
37242;DHT22;23135;51.078;12.108;2023-10-09T09:01:44;14.30;99.90
37242;DHT22;23135;51.078;12.108;2023-10-09T09:04:42;14.40;99.90
37242;DHT22;23135;51.078;12.108;2023-10-09T09:07:30;14.40;99.90
37242;DHT22;23135;51.078;12.108;2023-10-09T09:10:01;14.40;99.90
37242;DHT22;23135;51.078;12.108;2023-10-09T09:12:43;14.40;99.90
37242;DHT22;23135;51.078;12.108;2023-10-09T09:15:16;14.40;99.90
37242;DHT22;23135;51.078;12.108;2023-10-09T09:17:50;14.40;99.90
37242;DHT22;23135;51.078;12.108;2023-10-09T09:20:23;14.50;99.90
37242;DHT22;23135;51.078;12.108;2023-10-09T09:22:52;14.50;99.90
37242;DHT22;23135;51.078;12.108;2023-10-09T09:25:20;14.40;99.90
37242;DHT22;23135;51.078;12.108;2023-10-09T09:27:49;14.40;99.90
37242;DHT22;23135;51.078;12.108;2023-10-09T09:30:28;14.40;99.90
37242;DHT22;23135;51.078;12.108;2023-10-09T09:36:03;14.40;99.90
37242;DHT22;23135;51.078;12.108;2023-10-09T09:38:31;14.40;99.90
37242;DHT22;23135;51.078;12.108;2023-10-09T09:41:16;14.40;99.90
37242;DHT22;23135;51.078;12.108;2023-10-09T09:43:57;14.40;99.90
37242;DHT22;23135;51.078;12.108;2023-10-09T09:46:31;14.40;99.90
37242;DHT22;23135;51.078;12.108;2023-10-09T09:49:02;14.40;99.90
37242;DHT22;23135;51.078;12.108;2023-10-09T09:51:32;14.40;99.90
37242;DHT22;23135;51.078;12.108;2023-10-09T09:53:58;14.40;99.90
37242;DHT22;23135;51.078;12.108;2023-10-09T09:56:29;14.50;99.90
37242;DHT22;23135;51.078;12.108;2023-10-09T09:58:58;14.50;99.90
37242;DHT22;23135;51.078;12.108;2023-10-09T10:01:29;14.50;99.90
37242;DHT22;23135;51.078;12.108;2023-10-09T10:04:07;14.60;99.90
37242;DHT22;23135;51.078;12.108;2023-10-09T10:06:37;14.60;99.90
37242;DHT22;23135;51.078;12.108;2023-10-09T10:09:06;14.60;99.90
37242;DHT22;23135;51.078;12.108;2023-10-09T10:14:11;14.70;99.90
37242;DHT22;23135;51.078;12.108;2023-10-09T10:17:08;14.70;99.90
37242;DHT22;23135;51.078;12.108;2023-10-09T10:22:29;14.70;99.90
37242;DHT22;23135;51.078;12.108;2023-10-09T10:24:58;14.80;99.90
37242;DHT22;23135;51.078;12.108;2023-10-09T10:27:28;14.80;99.90
37242;DHT22;23135;51.078;12.108;2023-10-09T10:32:56;14.80;99.90
37242;DHT22;23135;51.078;12.108;2023-10-09T10:35:23;14.80;99.90
37242;DHT22;23135;51.078;12.108;2023-10-09T10:38:23;14.80;99.90
37242;DHT22;23135;51.078;12.108;2023-10-09T10:40:48;14.70;99.90
37242;DHT22;23135;51.078;12.108;2023-10-09T10:43:23;14.70;99.90
37242;DHT22;23135;51.078;12.108;2023-10-09T10:46:03;14.70;99.90
37242;DHT22;23135;51.078;12.108;2023-10-09T10:48:43;14.70;99.90
37242;DHT22;23135;51.078;12.108;2023-10-09T10:51:13;14.70;99.90
37242;DHT22;23135;51.078;12.108;2023-10-09T10:53:51;14.70;99.90
37242;DHT22;23135;51.078;12.108;2023-10-09T10:56:18;14.70;99.90
37242;DHT22;23135;51.078;12.108;2023-10-09T10:58:54;14.80;99.90
37242;DHT22;23135;51.078;12.108;2023-10-09T11:01:37;14.80;99.90
37242;DHT22;23135;51.078;12.108;2023-10-09T11:04:23;14.80;99.90
37242;DHT22;23135;51.078;12.108;2023-10-09T11:06:55;14.80;99.90
37242;DHT22;23135;51.078;12.108;2023-10-09T11:09:48;14.80;99.90
37242;DHT22;23135;51.078;12.108;2023-10-09T11:12:42;14.90;99.90
37242;DHT22;23135;51.078;12.108;2023-10-09T11:15:12;14.90;99.90
37242;DHT22;23135;51.078;12.108;2023-10-09T11:18:07;14.90;99.90
37242;DHT22;23135;51.078;12.108;2023-10-09T11:20:34;15.00;99.90
37242;DHT22;23135;51.078;12.108;2023-10-09T11:23:01;15.00;99.90
37242;DHT22;23135;51.078;12.108;2023-10-09T11:25:33;15.00;99.90
37242;DHT22;23135;51.078;12.108;2023-10-09T11:27:59;14.90;99.90
37242;DHT22;23135;51.078;12.108;2023-10-09T11:30:40;14.90;99.90
37242;DHT22;23135;51.078;12.108;2023-10-09T11:33:11;14.80;99.90
37242;DHT22;23135;51.078;12.108;2023-10-09T11:35:40;14.80;99.90
37242;DHT22;23135;51.078;12.108;2023-10-09T11:38:08;14.90;99.90
37242;DHT22;23135;51.078;12.108;2023-10-09T11:40:46;14.80;99.90
37242;DHT22;23135;51.078;12.108;2023-10-09T11:43:52;14.80;99.90
37242;DHT22;23135;51.078;12.108;2023-10-09T11:46:19;14.90;99.90
37242;DHT22;23135;51.078;12.108;2023-10-09T11:49:05;14.90;99.90
37242;DHT22;23135;51.078;12.108;2023-10-09T11:52:08;15.00;99.90
37242;DHT22;23135;51.078;12.108;2023-10-09T11:54:35;15.10;99.90
37242;DHT22;23135;51.078;12.108;2023-10-09T11:57:01;15.10;99.90
37242;DHT22;23135;51.078;12.108;2023-10-09T11:59:28;15.10;99.90
37242;DHT22;23135;51.078;12.108;2023-10-09T12:02:00;15.10;99.90
37242;DHT22;23135;51.078;12.108;2023-10-09T12:04:26;15.10;99.90
37242;DHT22;23135;51.078;12.108;2023-10-09T12:06:58;15.10;99.90
37242;DHT22;23135;51.078;12.108;2023-10-09T12:09:32;15.10;99.90
37242;DHT22;23135;51.078;12.108;2023-10-09T12:12:01;15.10;99.90
37242;DHT22;23135;51.078;12.108;2023-10-09T12:14:28;15.10;99.90
37242;DHT22;23135;51.078;12.108;2023-10-09T12:17:02;15.10;99.90
37242;DHT22;23135;51.078;12.108;2023-10-09T12:19:40;15.10;99.90
37242;DHT22;23135;51.078;12.108;2023-10-09T12:22:08;15.10;99.90
37242;DHT22;23135;51.078;12.108;2023-10-09T12:24:41;15.10;99.90
37242;DHT22;23135;51.078;12.108;2023-10-09T12:27:09;15.10;99.90
37242;DHT22;23135;51.078;12.108;2023-10-09T12:29:37;15.10;99.90
37242;DHT22;23135;51.078;12.108;2023-10-09T12:32:02;15.10;99.90
37242;DHT22;23135;51.078;12.108;2023-10-09T12:34:29;15.10;99.90
37242;DHT22;23135;51.078;12.108;2023-10-09T12:36:59;15.10;99.90
37242;DHT22;23135;51.078;12.108;2023-10-09T12:39:28;15.10;99.90
37242;DHT22;23135;51.078;12.108;2023-10-09T12:42:00;15.10;99.90
37242;DHT22;23135;51.078;12.108;2023-10-09T12:44:32;15.10;99.90
37242;DHT22;23135;51.078;12.108;2023-10-09T12:47:07;15.20;99.90
37242;DHT22;23135;51.078;12.108;2023-10-09T12:49:33;15.20;99.90
37242;DHT22;23135;51.078;12.108;2023-10-09T12:51:59;15.20;99.90
37242;DHT22;23135;51.078;12.108;2023-10-09T12:54:28;15.10;99.90
37242;DHT22;23135;51.078;12.108;2023-10-09T12:56:54;15.10;99.90
37242;DHT22;23135;51.078;12.108;2023-10-09T12:59:20;15.10;99.90
37242;DHT22;23135;51.078;12.108;2023-10-09T13:01:48;15.10;99.90
37242;DHT22;23135;51.078;12.108;2023-10-09T13:04:23;15.10;99.90
37242;DHT22;23135;51.078;12.108;2023-10-09T13:06:49;15.00;99.90
37242;DHT22;23135;51.078;12.108;2023-10-09T13:09:20;15.00;99.90
37242;DHT22;23135;51.078;12.108;2023-10-09T13:12:01;15.00;99.90
37242;DHT22;23135;51.078;12.108;2023-10-09T13:14:27;15.00;99.90
37242;DHT22;23135;51.078;12.108;2023-10-09T13:16:53;15.00;99.90
37242;DHT22;23135;51.078;12.108;2023-10-09T13:19:19;15.00;99.90
37242;DHT22;23135;51.078;12.108;2023-10-09T13:21:45;15.00;99.90
37242;DHT22;23135;51.078;12.108;2023-10-09T13:24:11;14.90;99.90
37242;DHT22;23135;51.078;12.108;2023-10-09T13:26:42;15.00;99.90
37242;DHT22;23135;51.078;12.108;2023-10-09T13:29:10;14.90;99.90
37242;DHT22;23135;51.078;12.108;2023-10-09T13:31:38;14.90;99.90
37242;DHT22;23135;51.078;12.108;2023-10-09T13:34:12;14.90;99.90
37242;DHT22;23135;51.078;12.108;2023-10-09T13:36:41;14.80;99.90
37242;DHT22;23135;51.078;12.108;2023-10-09T13:39:15;14.80;99.90
37242;DHT22;23135;51.078;12.108;2023-10-09T13:41:57;14.80;99.90
37242;DHT22;23135;51.078;12.108;2023-10-09T13:44:33;14.80;99.90
37242;DHT22;23135;51.078;12.108;2023-10-09T13:47:02;14.80;99.90
37242;DHT22;23135;51.078;12.108;2023-10-09T13:49:33;14.80;99.90
37242;DHT22;23135;51.078;12.108;2023-10-09T13:52:01;14.80;99.90
37242;DHT22;23135;51.078;12.108;2023-10-09T13:54:27;14.80;99.90
37242;DHT22;23135;51.078;12.108;2023-10-09T13:57:03;14.70;99.90
37242;DHT22;23135;51.078;12.108;2023-10-09T13:59:33;14.80;99.90
37242;DHT22;23135;51.078;12.108;2023-10-09T14:02:03;14.80;99.90
37242;DHT22;23135;51.078;12.108;2023-10-09T14:04:35;14.80;99.90
37242;DHT22;23135;51.078;12.108;2023-10-09T14:07:01;14.80;99.90
37242;DHT22;23135;51.078;12.108;2023-10-09T14:09:30;14.80;99.90
37242;DHT22;23135;51.078;12.108;2023-10-09T14:12:00;14.80;99.90
37242;DHT22;23135;51.078;12.108;2023-10-09T14:14:42;14.80;99.90
37242;DHT22;23135;51.078;12.108;2023-10-09T14:17:18;14.80;99.90
37242;DHT22;23135;51.078;12.108;2023-10-09T14:19:52;14.80;99.90
37242;DHT22;23135;51.078;12.108;2023-10-09T14:22:22;14.80;99.90
37242;DHT22;23135;51.078;12.108;2023-10-09T14:24:50;14.80;99.90
37242;DHT22;23135;51.078;12.108;2023-10-09T14:27:24;14.80;99.90
37242;DHT22;23135;51.078;12.108;2023-10-09T14:29:53;14.80;99.90
37242;DHT22;23135;51.078;12.108;2023-10-09T14:32:22;14.80;99.90
37242;DHT22;23135;51.078;12.108;2023-10-09T14:34:54;14.80;99.90
37242;DHT22;23135;51.078;12.108;2023-10-09T14:37:20;14.80;99.90
37242;DHT22;23135;51.078;12.108;2023-10-09T14:39:49;14.80;99.90
37242;DHT22;23135;51.078;12.108;2023-10-09T14:42:15;14.80;99.90
37242;DHT22;23135;51.078;12.108;2023-10-09T14:44:42;14.90;99.90
37242;DHT22;23135;51.078;12.108;2023-10-09T14:47:10;14.90;99.90
37242;DHT22;23135;51.078;12.108;2023-10-09T14:49:36;14.90;99.90
37242;DHT22;23135;51.078;12.108;2023-10-09T14:52:12;14.90;99.90
37242;DHT22;23135;51.078;12.108;2023-10-09T14:54:42;14.90;99.90
37242;DHT22;23135;51.078;12.108;2023-10-09T14:57:08;14.90;99.90
37242;DHT22;23135;51.078;12.108;2023-10-09T14:59:37;14.90;99.90
37242;DHT22;23135;51.078;12.108;2023-10-09T15:02:02;14.90;99.90
37242;DHT22;23135;51.078;12.108;2023-10-09T15:04:31;14.90;99.90
37242;DHT22;23135;51.078;12.108;2023-10-09T15:06:56;15.00;99.90
37242;DHT22;23135;51.078;12.108;2023-10-09T15:09:22;15.00;99.90
37242;DHT22;23135;51.078;12.108;2023-10-09T15:11:49;15.00;99.90
37242;DHT22;23135;51.078;12.108;2023-10-09T15:14:16;15.00;99.90
37242;DHT22;23135;51.078;12.108;2023-10-09T15:16:44;15.00;99.90
37242;DHT22;23135;51.078;12.108;2023-10-09T15:19:10;15.00;99.90
37242;DHT22;23135;51.078;12.108;2023-10-09T15:21:40;15.00;99.90
37242;DHT22;23135;51.078;12.108;2023-10-09T15:24:16;15.00;99.90
37242;DHT22;23135;51.078;12.108;2023-10-09T15:26:51;15.00;99.90
37242;DHT22;23135;51.078;12.108;2023-10-09T15:29:23;15.00;99.90
37242;DHT22;23135;51.078;12.108;2023-10-09T15:32:01;15.00;99.90
37242;DHT22;23135;51.078;12.108;2023-10-09T15:34:33;15.00;99.90
37242;DHT22;23135;51.078;12.108;2023-10-09T15:37:00;15.00;99.90
37242;DHT22;23135;51.078;12.108;2023-10-09T15:39:26;15.00;99.90
37242;DHT22;23135;51.078;12.108;2023-10-09T15:41:52;15.00;99.90
37242;DHT22;23135;51.078;12.108;2023-10-09T15:44:17;15.00;99.90
37242;DHT22;23135;51.078;12.108;2023-10-09T15:46:43;15.00;99.90
37242;DHT22;23135;51.078;12.108;2023-10-09T15:49:13;15.00;99.90
37242;DHT22;23135;51.078;12.108;2023-10-09T15:51:42;15.10;99.90
37242;DHT22;23135;51.078;12.108;2023-10-09T15:54:09;15.00;99.90
37242;DHT22;23135;51.078;12.108;2023-10-09T15:56:36;15.00;99.90
37242;DHT22;23135;51.078;12.108;2023-10-09T15:59:05;15.00;99.90
37242;DHT22;23135;51.078;12.108;2023-10-09T16:01:31;15.00;99.90
37242;DHT22;23135;51.078;12.108;2023-10-09T16:03:56;15.00;99.90
37242;DHT22;23135;51.078;12.108;2023-10-09T16:06:22;15.00;99.90
37242;DHT22;23135;51.078;12.108;2023-10-09T16:08:52;14.90;99.90
37242;DHT22;23135;51.078;12.108;2023-10-09T16:11:19;14.90;99.90
37242;DHT22;23135;51.078;12.108;2023-10-09T16:13:45;15.00;99.90